createdAt,value
2022-10-11T05:15:10.130Z,100437.41
2022-10-11T05:17:36.892Z,100436.56
2022-10-11T05:20:04.019Z,100447.50
2022-10-11T05:22:30.623Z,100441.28
2022-10-11T05:24:57.188Z,100451.25
2022-10-11T05:27:48.867Z,100454.06
2022-10-11T05:30:15.548Z,100449.06
2022-10-11T05:32:42.256Z,100453.91
2022-10-11T05:35:09.203Z,100452.84
2022-10-11T05:37:35.803Z,100453.75
2022-10-11T05:50:24.567Z,100460.87
2022-10-11T05:52:51.666Z,100462.31
2022-10-11T05:55:18.271Z,100467.69
2022-10-11T05:57:44.822Z,100466.38
2022-10-11T06:00:11.829Z,100462.84
2022-10-11T06:02:38.393Z,100467.09
2022-10-11T06:05:05.200Z,100471.78
2022-10-11T06:07:31.990Z,100476.22
2022-10-11T06:09:58.646Z,100480.44
2022-10-11T06:12:25.269Z,100480.13
2022-10-11T06:14:51.845Z,100484.44
2022-10-11T06:17:18.519Z,100490.97
2022-10-11T06:19:45.203Z,100493.72
2022-10-11T06:22:12.508Z,100492.28
2022-10-11T06:24:39.252Z,100490.12
2022-10-11T06:27:05.945Z,100491.59
2022-10-11T06:29:32.603Z,100488.22
2022-10-11T06:32:29.985Z,100495.25
2022-10-11T06:34:56.642Z,100487.81
2022-10-11T06:37:23.336Z,100490.16
2022-10-11T06:39:50.425Z,100495.78
2022-10-11T06:42:17.383Z,100489.03
2022-10-11T06:44:43.966Z,100494.53
2022-10-11T06:48:12.410Z,100502.22
2022-10-11T06:50:59.889Z,100500.28
2022-10-11T06:53:41.079Z,100498.03
2022-10-11T06:56:13.065Z,100502.03
2022-10-11T06:58:43.882Z,100497.00
2022-10-11T07:01:13.041Z,100497.44
2022-10-11T07:03:40.222Z,100501.94
2022-10-11T07:06:20.586Z,100508.66
2022-10-11T07:09:06.577Z,100511.13
2022-10-11T07:11:34.067Z,100516.03
2022-10-11T07:14:04.412Z,100516.22
2022-10-11T07:16:31.186Z,100515.41
2022-10-11T07:19:01.235Z,100511.81
2022-10-11T07:21:32.614Z,100517.88
2022-10-11T07:24:23.161Z,100513.69
2022-10-11T07:26:59.896Z,100516.00
2022-10-11T07:29:26.657Z,100523.44
2022-10-11T07:31:53.337Z,100522.13
2022-10-11T07:34:20.710Z,100519.09
2022-10-11T07:36:47.305Z,100527.09
2022-10-11T07:39:14.110Z,100521.47
2022-10-11T07:41:45.694Z,100528.69
2022-10-11T07:44:13.158Z,100521.81
2022-10-11T07:46:39.690Z,100521.59
2022-10-11T07:49:06.258Z,100518.50
2022-10-11T07:51:33.387Z,100521.59
2022-10-11T07:54:03.478Z,100527.97
2022-10-11T07:56:46.971Z,100521.53
2022-10-11T07:59:13.548Z,100519.97
2022-10-11T08:01:40.230Z,100527.06
2022-10-11T08:04:06.958Z,100526.59
2022-10-11T08:06:33.704Z,100528.53
2022-10-11T08:09:02.372Z,100513.06
2022-10-11T08:12:15.872Z,100524.53
2022-10-11T08:15:40.597Z,100528.03
2022-10-11T08:18:07.396Z,100529.56
2022-10-11T08:20:34.173Z,100528.16
2022-10-11T08:23:00.806Z,100532.41
2022-10-11T08:25:27.536Z,100532.59
2022-10-11T08:27:54.212Z,100533.94
2022-10-11T08:30:20.804Z,100532.69
2022-10-11T08:32:47.336Z,100538.53
2022-10-11T08:35:14.864Z,100535.06
2022-10-11T08:37:41.462Z,100534.50
2022-10-11T08:40:10.511Z,100531.41
2022-10-11T08:42:47.017Z,100532.75
2022-10-11T08:46:00.033Z,100526.47
2022-10-11T08:48:48.667Z,100541.06
2022-10-11T08:51:21.250Z,100535.84
2022-10-11T08:54:07.170Z,100536.66
2022-10-11T08:56:37.360Z,100538.75
2022-10-11T08:59:12.903Z,100536.72
2022-10-11T09:06:05.473Z,100537.31
2022-10-11T09:09:02.366Z,100534.09
2022-10-11T09:11:37.790Z,100538.00
2022-10-11T09:14:22.721Z,100541.94
2022-10-11T09:17:00.905Z,100537.50
2022-10-11T09:19:45.202Z,100536.53
2022-10-11T09:22:54.208Z,100534.56
2022-10-11T09:25:33.326Z,100542.37
2022-10-11T09:28:13.410Z,100543.66
2022-10-11T09:30:46.941Z,100546.97
2022-10-11T09:33:35.421Z,100547.00
2022-10-11T09:36:52.263Z,100545.84
2022-10-11T09:39:57.061Z,100547.97
2022-10-11T09:42:23.750Z,100551.38
2022-10-11T09:44:51.710Z,100551.06
2022-10-11T09:47:27.235Z,100549.25
2022-10-11T09:50:05.340Z,100550.84
2022-10-11T09:52:32.567Z,100550.22
2022-10-11T09:55:19.678Z,100548.59
2022-10-11T09:57:55.091Z,100555.03
2022-10-11T10:00:24.386Z,100558.28
2022-10-11T10:02:54.381Z,100551.50
2022-10-11T10:05:26.946Z,100550.28
2022-10-11T10:22:05.516Z,100538.87
2022-10-11T10:24:41.311Z,100533.94
2022-10-11T10:27:36.078Z,100536.47
2022-10-11T10:30:35.378Z,100533.19
2022-10-11T10:33:09.166Z,100537.06
2022-10-11T10:35:48.486Z,100529.19
2022-10-11T10:38:28.886Z,100534.88
2022-10-11T10:41:01.871Z,100531.66
2022-10-11T10:43:33.481Z,100530.06
2022-10-11T10:50:18.429Z,100533.41
2022-10-11T10:53:12.666Z,100530.75
2022-10-11T10:55:43.161Z,100528.47
2022-10-11T10:58:27.817Z,100533.28
2022-10-11T11:01:02.380Z,100531.25
2022-10-11T11:04:06.948Z,100523.62
2022-10-11T11:06:54.056Z,100523.84
2022-10-11T11:09:52.136Z,100520.81
2022-10-11T11:12:24.822Z,100521.41
2022-10-11T11:14:54.340Z,100517.00
2022-10-11T11:18:06.002Z,100520.72
2022-10-11T11:24:35.278Z,100522.44
2022-10-11T11:27:26.550Z,100522.47
2022-10-11T11:30:03.048Z,100518.69
2022-10-11T11:33:24.425Z,100521.69
2022-10-11T11:35:55.803Z,100518.25
2022-10-11T11:39:15.602Z,100508.84
2022-10-11T11:42:07.476Z,100513.47
2022-10-11T11:44:44.380Z,100519.81
2022-10-11T11:47:42.023Z,100505.81
2022-10-11T11:50:34.443Z,100505.56
2022-10-11T12:00:14.126Z,100500.47
2022-10-11T12:03:11.361Z,100505.66
2022-10-11T12:05:38.032Z,100499.41
2022-10-11T12:08:11.129Z,100498.78
2022-10-11T12:10:53.674Z,100494.13
2022-10-11T12:13:48.511Z,100495.19
2022-10-11T12:37:24.422Z,100478.97
2022-10-11T12:39:57.983Z,100482.41
2022-10-11T12:42:36.551Z,100480.38
2022-10-11T12:45:14.934Z,100478.91
2022-10-11T12:48:04.173Z,100471.63
2022-10-11T12:50:49.470Z,100475.66
2022-10-11T12:53:33.602Z,100464.59
2022-10-11T12:56:07.606Z,100471.50
2022-10-11T12:58:43.928Z,100468.22
2022-10-11T13:01:19.525Z,100462.16
2022-10-11T13:07:44.013Z,100458.56
2022-10-11T13:10:16.063Z,100480.25
2022-10-11T13:12:49.545Z,100470.38
2022-10-11T13:15:20.898Z,100472.53
2022-10-11T13:17:48.829Z,100468.72
2022-10-11T13:20:58.232Z,100474.19
2022-10-11T13:23:24.868Z,100470.53
2022-10-11T13:28:36.809Z,100472.72
2022-10-11T14:34:32.175Z,100475.84
2022-10-11T14:36:59.032Z,100477.72
2022-10-11T14:39:28.006Z,100479.69
2022-10-11T14:44:30.896Z,100478.22
2022-10-11T14:46:57.515Z,100484.06
2022-10-11T14:54:48.537Z,100477.03
2022-10-11T14:57:15.186Z,100477.03
2022-10-11T14:59:41.997Z,100478.53
2022-10-11T15:02:11.211Z,100481.31
2022-10-11T15:04:37.919Z,100481.06
2022-10-11T15:07:05.833Z,100478.53
2022-10-11T15:09:32.659Z,100478.81
2022-10-11T15:11:59.590Z,100475.47
2022-10-11T15:14:26.452Z,100485.28
2022-10-11T15:16:53.622Z,100476.75
2022-10-11T15:19:23.039Z,100485.66
2022-10-11T15:24:21.432Z,100496.97
2022-10-11T15:26:48.524Z,100493.72
2022-10-11T15:29:17.763Z,100497.66
2022-10-11T15:31:47.598Z,100496.56
2022-10-11T15:37:05.163Z,100500.41
2022-10-11T15:39:43.919Z,100501.78
2022-10-11T15:50:50.631Z,100505.00
2022-10-11T15:53:18.954Z,100508.75
2022-10-11T15:56:17.778Z,100507.94
2022-10-11T15:58:50.910Z,100506.97
2022-10-11T16:01:23.207Z,100510.31
2022-10-11T16:03:55.493Z,100514.56
2022-10-11T16:06:22.553Z,100515.25
2022-10-11T16:08:59.659Z,100511.06
2022-10-11T16:11:26.803Z,100518.41
2022-10-11T16:13:54.314Z,100516.47
2022-10-11T16:22:03.426Z,100522.19
2022-10-11T16:29:47.025Z,100522.25
2022-10-11T16:32:13.668Z,100534.19
2022-10-11T16:34:41.534Z,100541.41
2022-10-11T16:37:08.509Z,100535.09
2022-10-11T16:39:36.374Z,100539.81
2022-10-11T16:42:03.308Z,100547.00
2022-10-11T16:44:30.004Z,100545.37
2022-10-11T16:46:56.778Z,100542.41
2022-10-11T16:49:27.528Z,100550.91
2022-10-11T16:51:57.026Z,100551.38
2022-10-11T16:54:28.292Z,100555.13
2022-10-11T16:56:56.593Z,100551.84
2022-10-11T16:59:25.782Z,100552.63
2022-10-11T17:09:46.056Z,100558.03
2022-10-11T17:12:14.375Z,100557.66
2022-10-11T17:14:41.456Z,100568.13
2022-10-11T17:17:09.745Z,100570.25
2022-10-11T17:19:42.620Z,100570.47
2022-10-11T17:22:13.158Z,100576.69
2022-10-11T17:24:40.041Z,100572.87
2022-10-11T17:27:07.664Z,100570.81
2022-10-11T17:29:34.665Z,100572.56
2022-10-11T17:32:01.671Z,100571.00
2022-10-11T17:34:33.857Z,100571.69
2022-10-11T17:37:00.624Z,100578.56
2022-10-11T17:39:27.251Z,100574.75
2022-10-11T17:41:53.944Z,100583.84
2022-10-11T17:54:56.836Z,100587.28
2022-10-11T17:57:26.250Z,100580.75
2022-10-11T17:59:53.002Z,100593.03
2022-10-11T18:02:20.207Z,100588.91
2022-10-11T18:04:54.402Z,100585.03
2022-10-11T18:07:29.902Z,100594.81
2022-10-11T19:18:18.199Z,100589.34
2022-10-11T19:21:12.031Z,100600.19
2022-10-11T19:23:43.597Z,100597.00
2022-10-11T19:26:23.687Z,100600.56
2022-10-11T19:29:05.665Z,100608.78
2022-10-11T19:31:34.487Z,100613.25
2022-10-11T19:34:06.995Z,100599.50
2022-10-11T19:36:41.076Z,100609.69
2022-10-11T19:41:58.627Z,100614.81
2022-10-11T19:44:25.326Z,100613.47
2022-10-11T19:46:55.770Z,100614.69
2022-10-11T19:49:26.854Z,100609.47
2022-10-11T19:51:55.368Z,100610.78
2022-10-11T19:54:22.350Z,100607.25
2022-10-11T19:56:49.156Z,100610.78
2022-10-11T19:59:16.297Z,100602.50
2022-10-11T20:01:52.747Z,100603.41
2022-10-11T20:40:00.310Z,100623.84
2022-10-11T20:42:29.923Z,100628.59
2022-10-11T20:45:08.174Z,100626.34
2022-10-11T21:16:17.170Z,100624.81
2022-10-11T21:39:36.881Z,100631.53
2022-10-11T21:42:03.752Z,100630.94
2022-10-11T21:44:32.550Z,100628.72
2022-10-11T21:51:25.734Z,100627.44
2022-10-11T21:54:00.396Z,100632.22
2022-10-11T21:56:28.620Z,100629.47
2022-10-11T21:58:55.568Z,100634.31
2022-10-11T22:01:22.312Z,100633.84
2022-10-11T22:03:49.082Z,100626.09
2022-10-11T22:06:16.037Z,100627.72
2022-10-11T22:08:45.827Z,100630.00
2022-10-11T23:04:55.976Z,100638.06
2022-10-11T23:07:22.572Z,100628.09
2022-10-11T23:14:13.549Z,100635.47
2022-10-11T23:16:46.267Z,100646.09
2022-10-11T23:19:17.383Z,100641.69
2022-10-11T23:21:49.497Z,100637.31
2022-10-11T23:24:16.294Z,100644.44
2022-10-11T23:26:45.947Z,100640.37
2022-10-11T23:29:51.285Z,100637.31
2022-10-11T23:32:28.281Z,100651.31
2022-10-11T23:35:04.065Z,100640.37
2022-10-11T23:37:36.937Z,100652.56
2022-10-11T23:40:05.450Z,100651.03
